createdAt,value
2015-11-03T00:00:58.426Z,1016.2
2015-11-03T00:01:58.554Z,1016
2015-11-03T00:02:57.545Z,1016.1
2015-11-03T00:03:58.251Z,1016.1
2015-11-03T00:04:58.427Z,1016
2015-11-03T00:05:58.132Z,1016.2
2015-11-03T00:06:58.088Z,1016.3
2015-11-03T00:07:58.012Z,1016.1
2015-11-03T00:08:57.968Z,1016.2
2015-11-03T00:09:57.909Z,1016.2
2015-11-03T00:10:57.848Z,1016.1
2015-11-03T00:11:57.805Z,1016
2015-11-03T00:12:57.729Z,1016.1
2015-11-03T00:13:57.670Z,1016
2015-11-03T00:14:57.625Z,1016
2015-11-03T00:15:57.566Z,1016.1
2015-11-03T00:16:57.523Z,1016.2
2015-11-03T00:17:57.431Z,1016.2
2015-11-03T00:18:57.402Z,1016
2015-11-03T00:19:57.326Z,1016.2
2015-11-03T00:20:57.284Z,1016
2015-11-03T00:21:57.207Z,1016.2
2015-11-03T00:22:57.164Z,1016
2015-11-03T00:23:57.088Z,1016
2015-11-03T00:24:57.045Z,1016
2015-11-03T00:25:56.967Z,1016
2015-11-03T00:26:56.925Z,1016
2015-11-03T00:27:56.880Z,1016
2015-11-03T00:28:56.805Z,1016.1
2015-11-03T00:29:56.761Z,1016
2015-11-03T00:30:56.700Z,1015.9
2015-11-03T00:31:56.641Z,1015.9
2015-11-03T00:32:56.596Z,1016
2015-11-03T00:33:56.521Z,1016
2015-11-03T00:34:56.665Z,1016
2015-11-03T00:35:56.415Z,1016.1
2015-11-03T00:36:56.355Z,1016
2015-11-03T00:37:56.280Z,1016
2015-11-03T00:38:56.220Z,1015.9
2015-11-03T00:39:56.363Z,1016
2015-11-03T00:40:56.131Z,1015.9
2015-11-03T00:41:56.055Z,1015.9
2015-11-03T00:42:56.012Z,1016
2015-11-03T00:43:55.937Z,1015.9
2015-11-03T00:44:55.877Z,1016
2015-11-03T00:45:56.066Z,1015.9
2015-11-03T00:46:55.773Z,1016
2015-11-03T00:47:55.697Z,1016
2015-11-03T00:48:55.653Z,1015.8
2015-11-03T00:49:55.610Z,1015.8
2015-11-03T00:50:55.533Z,1015.9
2015-11-03T00:51:55.474Z,1015.9
2015-11-03T00:52:55.430Z,1015.8
2015-11-03T00:53:55.371Z,1015.8
2015-11-03T00:54:55.294Z,1015.9
2015-11-03T00:55:55.486Z,1015.8
2015-11-03T00:56:55.191Z,1015.9
2015-11-03T00:57:55.178Z,1015.8
2015-11-03T00:58:55.088Z,1015.7
2015-11-03T00:59:55.027Z,1015.8
2015-11-03T01:00:55.155Z,1015.8
2015-11-03T01:01:54.907Z,1015.7
2015-11-03T01:02:54.833Z,1015.8
2015-11-03T01:03:54.789Z,1015.8
2015-11-03T01:04:54.713Z,1015.6
2015-11-03T01:05:54.654Z,1015.7
2015-11-03T01:06:54.624Z,1015.7
2015-11-03T01:07:54.565Z,1015.6
2015-11-03T01:08:54.505Z,1015.6
2015-11-03T01:09:54.429Z,1015.5
2015-11-03T01:10:54.385Z,1015.7
2015-11-03T01:11:54.341Z,1015.6
2015-11-03T01:12:54.282Z,1015.7
2015-11-03T01:13:53.457Z,1015.6
2015-11-03T01:14:54.162Z,1015.6
2015-11-03T01:15:54.088Z,1015.6
2015-11-03T01:16:54.043Z,1015.6
2015-11-03T01:17:53.968Z,1015.5
2015-11-03T01:18:53.985Z,1015.5
2015-11-03T01:19:53.848Z,1015.5
2015-11-03T01:20:54.038Z,1015.6
2015-11-03T01:21:53.757Z,1015.5
2015-11-03T01:23:14.294Z,1015.4
2015-11-03T01:23:53.622Z,1015.4
2015-11-03T01:24:53.563Z,1015.5
2015-11-03T01:25:53.502Z,1015.5
2015-11-03T01:26:53.443Z,1015.5
2015-11-03T01:27:53.383Z,1015.4
2015-11-03T01:28:53.340Z,1015.4
2015-11-03T01:29:53.263Z,1015.6
2015-11-03T01:30:53.454Z,1015.4
2015-11-03T01:31:53.160Z,1015.5
2015-11-03T01:32:53.101Z,1015.5
2015-11-03T01:33:53.056Z,1015.4
2015-11-03T01:34:52.996Z,1015.3
2015-11-03T01:35:52.937Z,1015.5
2015-11-03T01:36:52.862Z,1015.3
2015-11-03T01:37:52.801Z,1015.4
2015-11-03T01:38:52.757Z,1015.3
2015-11-03T01:39:52.698Z,1015.3
2015-11-03T01:40:52.638Z,1015.4
2015-11-03T01:41:52.579Z,1015.3
2015-11-03T01:42:52.534Z,1015.3
2015-11-03T01:43:52.474Z,1015.3
2015-11-03T01:44:52.415Z,1015.4
2015-11-03T01:45:52.354Z,1015.3
2015-11-03T01:46:52.295Z,1015.2
2015-11-03T01:47:52.220Z,1015.2
2015-11-03T01:48:52.176Z,1015.3
2015-11-03T01:49:52.115Z,1015.3
2015-11-03T01:50:52.056Z,1015.2
2015-11-03T01:51:51.996Z,1015.1
2015-11-03T01:52:51.951Z,1015.1
2015-11-03T01:53:51.892Z,1015
2015-11-03T01:54:51.817Z,1015
2015-11-03T01:55:51.788Z,1015.1
2015-11-03T01:56:51.709Z,1015.1
2015-11-03T01:57:50.901Z,1015
2015-11-03T01:58:51.591Z,1015
2015-11-03T01:59:51.531Z,1015.1
2015-11-03T02:00:51.471Z,1015
2015-11-03T02:01:51.411Z,1014.9
2015-11-03T02:02:51.351Z,1014.9
2015-11-03T02:03:51.292Z,1015
2015-11-03T02:04:51.232Z,1015
2015-11-03T02:05:51.188Z,1014.9
2015-11-03T02:06:51.159Z,1014.9
2015-11-03T02:07:51.069Z,1014.8
2015-11-03T02:08:51.009Z,1014.8
2015-11-03T02:09:50.964Z,1014.8
2015-11-03T02:10:50.889Z,1014.8
2015-11-03T02:11:50.861Z,1014.9
2015-11-03T02:12:50.785Z,1014.9
2015-11-03T02:13:50.711Z,1014.8
2015-11-03T02:14:50.697Z,1014.7
2015-11-03T02:15:50.606Z,1014.8
2015-11-03T02:16:50.578Z,1014.8
2015-11-03T02:17:50.534Z,1014.8
2015-11-03T02:18:50.427Z,1014.7
2015-11-03T02:19:50.367Z,1014.6
2015-11-03T02:20:50.355Z,1014.6
2015-11-03T02:21:50.450Z,1014.6
2015-11-03T02:22:50.188Z,1014.6
2015-11-03T02:23:50.128Z,1014.7
2015-11-03T02:24:50.083Z,1014.9
2015-11-03T02:25:50.055Z,1014.8
2015-11-03T02:26:49.980Z,1014.9
2015-11-03T02:27:49.920Z,1014.8
2015-11-03T02:28:49.861Z,1014.8
2015-11-03T02:29:49.785Z,1014.8
2015-11-03T02:30:49.757Z,1014.9
2015-11-03T02:31:49.681Z,1014.8
2015-11-03T02:32:49.606Z,1014.8
2015-11-03T02:33:48.812Z,1014.8
2015-11-03T02:34:49.502Z,1014.8
2015-11-03T02:35:49.646Z,1014.8
2015-11-03T02:36:49.819Z,1014.7
2015-11-03T02:37:49.323Z,1014.7
2015-11-03T02:38:49.294Z,1014.7
2015-11-03T02:39:49.203Z,1014.8
2015-11-03T02:40:49.191Z,1014.7
2015-11-03T02:41:49.099Z,1014.7
2015-11-03T02:42:49.040Z,1014.7
2015-11-03T02:43:48.995Z,1014.6
2015-11-03T02:44:48.920Z,1014.5
2015-11-03T02:45:48.876Z,1014.5
2015-11-03T02:46:49.004Z,1014.5
2015-11-03T02:47:48.754Z,1014.6
2015-11-03T02:48:48.678Z,1014.5
2015-11-03T02:49:47.868Z,1014.5
2015-11-03T02:50:48.809Z,1014.5
2015-11-03T02:51:48.515Z,1014.3
2015-11-03T02:52:48.518Z,1014.5
2015-11-03T02:53:48.379Z,1014.6
2015-11-03T02:54:47.570Z,1014.5
2015-11-03T02:55:48.307Z,1014.4
2015-11-03T02:56:48.215Z,1014.3
2015-11-03T02:57:48.171Z,1014.3
2015-11-03T02:58:48.096Z,1014.5
2015-11-03T02:59:48.037Z,1014.3
2015-11-03T03:00:47.179Z,1014.5
2015-11-03T03:01:47.932Z,1014.6
2015-11-03T03:02:47.873Z,1014.5
2015-11-03T03:03:47.844Z,1014.5
2015-11-03T03:04:47.754Z,1014.6
2015-11-03T03:05:47.707Z,1014.7
2015-11-03T03:06:47.620Z,1014.7
2015-11-03T03:07:47.563Z,1014.6
2015-11-03T03:08:47.490Z,1014.6
2015-11-03T03:09:47.620Z,1014.6
2015-11-03T03:10:47.533Z,1014.5
2015-11-03T03:11:47.532Z,1014.5
2015-11-03T03:12:47.216Z,1014.4
2015-11-03T03:13:47.152Z,1014.5
2015-11-03T03:14:47.151Z,1014.5
2015-11-03T03:15:47.024Z,1014.5
2015-11-03T03:16:46.962Z,1014.5
2015-11-03T03:17:46.980Z,1014.5
2015-11-03T03:18:46.872Z,1014.5
2015-11-03T03:19:46.810Z,1014.5
2015-11-03T03:20:46.750Z,1014.5
2015-11-03T03:21:46.705Z,1014.8
2015-11-03T03:22:46.629Z,1014.5
2015-11-03T03:23:46.569Z,1014.5
2015-11-03T03:24:46.556Z,1014.6
2015-11-03T03:25:46.479Z,1014.5
2015-11-03T03:26:46.389Z,1014.5
2015-11-03T03:27:46.328Z,1014.5
2015-11-03T03:28:46.284Z,1014.5
2015-11-03T03:29:46.239Z,1014.5
2015-11-03T03:30:46.149Z,1014.5
2015-11-03T03:31:46.104Z,1014.4
2015-11-03T03:32:46.060Z,1014.5
2015-11-03T03:33:46.000Z,1014.4
2015-11-03T03:34:45.940Z,1014.3
2015-11-03T03:35:46.099Z,1014.5
2015-11-03T03:36:45.821Z,1014.4
2015-11-03T03:37:45.761Z,1014.4
2015-11-03T03:38:45.717Z,1014.4
2015-11-03T03:39:45.657Z,1014.3
2015-11-03T03:40:45.597Z,1014.4
2015-11-03T03:41:45.585Z,1014.4
2015-11-03T03:42:45.460Z,1014.4
2015-11-03T03:43:45.415Z,1014.4
2015-11-03T03:44:45.371Z,1014.5
2015-11-03T03:45:45.498Z,1014.3
2015-11-03T03:46:45.251Z,1014.3
2015-11-03T03:47:45.379Z,1014.3
2015-11-03T03:48:45.132Z,1014.5
2015-11-03T03:49:45.073Z,1014.4
2015-11-03T03:50:44.998Z,1014.4
2015-11-03T03:51:44.968Z,1014.3
2015-11-03T03:52:44.784Z,1014.4
2015-11-03T03:53:44.833Z,1014.3
2015-11-03T03:54:44.758Z,1014.3
2015-11-03T03:55:44.729Z,1014.3
2015-11-03T03:56:44.670Z,1014.4
2015-11-03T03:57:44.610Z,1014.4
2015-11-03T03:58:44.582Z,1014.3
2015-11-03T03:59:44.475Z,1014.4
2015-11-03T04:00:44.446Z,1014.3
2015-11-03T04:01:44.355Z,1014.3
2015-11-03T04:02:44.342Z,1014.3
2015-11-03T04:03:44.267Z,1014.3
2015-11-03T04:04:44.645Z,1014.4
2015-11-03T04:05:44.163Z,1014.3
2015-11-03T04:06:44.068Z,1014.4
2015-11-03T04:07:44.024Z,1014.4
2015-11-03T04:08:43.996Z,1014.3
2015-11-03T04:09:43.904Z,1014.4
2015-11-03T04:10:43.876Z,1014.2
2015-11-03T04:11:43.816Z,1014.5
2015-11-03T04:12:43.741Z,1014.4
2015-11-03T04:13:43.681Z,1014.4
2015-11-03T04:14:43.637Z,1014.3
2015-11-03T04:15:43.561Z,1014.2
2015-11-03T04:16:43.518Z,1014.1
2015-11-03T04:17:43.645Z,1014.2
2015-11-03T04:18:43.382Z,1014.3
2015-11-03T04:19:43.338Z,1014.3
2015-11-03T04:20:43.278Z,1014.2
2015-11-03T04:21:43.234Z,1014.3
2015-11-03T04:22:43.143Z,1014.4
2015-11-03T04:23:43.099Z,1014.4
2015-11-03T04:24:43.054Z,1014.4
2015-11-03T04:25:43.214Z,1014.3
2015-11-03T04:26:43.138Z,1014.3
2015-11-03T04:27:43.001Z,1014.2
2015-11-03T04:28:42.815Z,1014.2
2015-11-03T04:29:42.756Z,1014.2
2015-11-03T04:30:42.931Z,1014.1
2015-11-03T04:31:42.636Z,1014.1
2015-11-03T04:32:42.780Z,1014.2
2015-11-03T04:33:42.579Z,1014.3
2015-11-03T04:34:42.301Z,1014.2
2015-11-03T04:35:42.398Z,1014.2
2015-11-03T04:36:42.353Z,1014.1
2015-11-03T04:37:42.637Z,1014.3
2015-11-03T04:38:42.233Z,1014.2
2015-11-03T04:39:42.173Z,1014.3
2015-11-03T04:40:42.130Z,1014.3
2015-11-03T04:41:42.083Z,1014.3
2015-11-03T04:42:41.991Z,1014.3
2015-11-03T04:43:41.947Z,1014.3
2015-11-03T04:44:56.437Z,1014.2
2015-11-03T04:46:42.065Z,1014.2
2015-11-03T04:47:41.739Z,1014.1
2015-11-03T04:50:42.264Z,1014.1
2015-11-03T04:51:41.469Z,1014.1
2015-11-03T04:52:42.613Z,1014.1
2015-11-03T04:53:55.897Z,1014
2015-11-03T04:55:41.262Z,1014.2
2015-11-03T04:56:41.217Z,1014.2
2015-11-03T04:57:41.127Z,1014.2
2015-11-03T04:58:55.317Z,1014.1
2015-11-03T04:59:40.273Z,1014.2
2015-11-03T05:00:40.963Z,1014.1
2015-11-03T05:01:40.903Z,1014
2015-11-03T05:02:40.999Z,1014
2015-11-03T05:03:40.799Z,1013.9
2015-11-03T05:04:40.724Z,1013.9
2015-11-03T05:05:40.696Z,1013.9
2015-11-03T05:06:40.855Z,1013.9
2015-11-03T05:07:40.577Z,1013.9
2015-11-03T05:08:40.516Z,1013.9
2015-11-03T05:09:40.441Z,1013.9
2015-11-03T05:10:40.396Z,1013.9
2015-11-03T05:11:40.321Z,1013.9
2015-11-03T05:12:40.277Z,1013.8
2015-11-03T05:13:40.218Z,1013.9
2015-11-03T05:14:40.392Z,1014
2015-11-03T05:15:40.098Z,1013.9
2015-11-03T05:16:40.069Z,1014
2015-11-03T05:17:39.979Z,1014
2015-11-03T05:18:39.919Z,1013.9
2015-11-03T05:19:39.875Z,1014
2015-11-03T05:20:40.033Z,1013.9
2015-11-03T05:21:39.754Z,1014
2015-11-03T05:22:39.679Z,1014
2015-11-03T05:23:39.636Z,1014.1
2015-11-03T05:24:39.575Z,1014.2
2015-11-03T05:25:39.515Z,1014.2
2015-11-03T05:26:39.472Z,1014
2015-11-03T05:27:39.396Z,1014.1
2015-11-03T05:28:39.352Z,1014.2
2015-11-03T05:29:39.276Z,1014.1
2015-11-03T05:30:39.232Z,1014.1
2015-11-03T05:31:39.173Z,1014.1
2015-11-03T05:32:39.332Z,1014
2015-11-03T05:33:49.084Z,1014
2015-11-03T05:34:39.006Z,1014
2015-11-03T05:35:38.963Z,1013.9
2015-11-03T05:36:38.903Z,1014
2015-11-03T05:37:38.859Z,1013.9
2015-11-03T05:38:38.784Z,1013.9
2015-11-03T05:39:38.707Z,1013.9
2015-11-03T05:40:38.648Z,1014
2015-11-03T05:41:38.588Z,1013.8
2015-11-03T05:42:38.529Z,1013.9
2015-11-03T05:43:38.484Z,1014
2015-11-03T05:44:38.409Z,1013.8
2015-11-03T05:45:38.365Z,1014
2015-11-03T05:46:38.289Z,1014
2015-11-03T05:47:38.229Z,1014.2
2015-11-03T05:48:38.186Z,1014.2
2015-11-03T05:49:38.125Z,1014.1
2015-11-03T05:50:37.909Z,1014.1
2015-11-03T05:51:38.006Z,1014.2
2015-11-03T05:52:37.212Z,1014
2015-11-03T05:53:37.902Z,1014
2015-11-03T05:54:37.828Z,1014.1
2015-11-03T05:55:37.767Z,1013.9
2015-11-03T05:56:37.708Z,1013.9
2015-11-03T05:57:37.648Z,1014
2015-11-03T05:58:37.603Z,1014
2015-11-03T05:59:37.545Z,1014
2015-11-03T06:00:37.500Z,1014
2015-11-03T06:01:37.424Z,1014
2015-11-03T06:02:37.364Z,1013.8
2015-11-03T06:03:37.555Z,1013.7
2015-11-03T06:04:36.511Z,1013.8
2015-11-03T06:05:37.200Z,1013.7
2015-11-03T06:06:36.392Z,1013.7
2015-11-03T06:07:37.097Z,1013.8
2015-11-03T06:08:37.006Z,1013.8
2015-11-03T06:09:36.961Z,1014
2015-11-03T06:10:36.918Z,1013.8
2015-11-03T06:11:37.045Z,1013.8
2015-11-03T06:12:36.798Z,1013.8
2015-11-03T06:13:36.739Z,1013.9
2015-11-03T06:14:36.694Z,1013.9
2015-11-03T06:15:36.619Z,1013.9
2015-11-03T06:16:36.544Z,1013.9
2015-11-03T06:17:36.515Z,1013.9
2015-11-03T06:18:36.689Z,1014
2015-11-03T06:19:36.380Z,1014
2015-11-03T06:20:36.523Z,1014.1
2015-11-03T06:21:36.260Z,1014.1
2015-11-03T06:22:36.213Z,1014.1
2015-11-03T06:23:36.344Z,1014.1
2015-11-03T06:24:35.266Z,1014.2
2015-11-03T06:25:36.269Z,1014.1
2015-11-03T06:26:35.974Z,1014
2015-11-03T06:27:35.915Z,1014
2015-11-03T06:28:35.870Z,1014
2015-11-03T06:29:35.795Z,1013.9
2015-11-03T06:30:35.735Z,1014
2015-11-03T06:31:35.691Z,1013.9
2015-11-03T06:32:35.616Z,1013.9
2015-11-03T06:33:35.588Z,1014
2015-11-03T06:34:35.512Z,1013.9
2015-11-03T06:35:35.687Z,1014
2015-11-03T06:36:35.408Z,1013.9
2015-11-03T06:37:35.333Z,1013.9
2015-11-03T06:38:35.273Z,1013.9
2015-11-03T06:39:35.228Z,1013.9
2015-11-03T06:40:35.169Z,1014
2015-11-03T06:41:35.109Z,1013.9
2015-11-03T06:42:34.315Z,1013.9
2015-11-03T06:43:34.990Z,1013.9
2015-11-03T06:44:34.914Z,1013.9
2015-11-03T06:45:34.886Z,1013.9
2015-11-03T06:46:34.826Z,1013.9
2015-11-03T06:47:34.766Z,1014
2015-11-03T06:48:34.706Z,1014
2015-11-03T06:49:34.646Z,1014.1
2015-11-03T06:50:34.587Z,1014.1
2015-11-03T06:51:34.526Z,1014.3
2015-11-03T06:52:34.655Z,1014.3
2015-11-03T06:53:34.408Z,1014.3
2015-11-03T06:54:34.348Z,1014.4
2015-11-03T06:55:34.273Z,1014.2
2015-11-03T06:56:34.228Z,1014.4
2015-11-03T06:57:34.404Z,1014.4
2015-11-03T06:58:34.125Z,1014.3
2015-11-03T06:59:34.049Z,1014.4
2015-11-03T07:00:33.990Z,1014.3
2015-11-03T07:01:33.946Z,1014.3
2015-11-03T07:02:33.870Z,1014.2
2015-11-03T07:03:33.826Z,1014.3
2015-11-03T07:04:33.766Z,1014.5
2015-11-03T07:05:33.706Z,1014.5
2015-11-03T07:06:33.647Z,1014.4
2015-11-03T07:07:33.587Z,1014.4
2015-11-03T07:08:33.527Z,1014.2
2015-11-03T07:09:33.448Z,1014.3
2015-11-03T07:10:33.389Z,1014.3
2015-11-03T07:11:33.361Z,1014.4
2015-11-03T07:12:33.270Z,1014.3
2015-11-03T07:13:33.241Z,1014.2
2015-11-03T07:14:33.150Z,1014.1
2015-11-03T07:15:33.106Z,1014.3
2015-11-03T07:16:33.047Z,1014.4
2015-11-03T07:17:32.986Z,1014.3
2015-11-03T07:18:32.927Z,1014.2
2015-11-03T07:19:32.867Z,1014.3
2015-11-03T07:20:32.058Z,1014.3
2015-11-03T07:21:32.748Z,1014.3
2015-11-03T07:22:32.689Z,1014.3
2015-11-03T07:23:32.909Z,1014.3
2015-11-03T07:24:32.818Z,1014.3
2015-11-03T07:25:32.525Z,1014.3
2015-11-03T07:26:32.667Z,1014.3
2015-11-03T07:27:32.436Z,1014.3
2015-11-03T07:28:32.345Z,1014.2
2015-11-03T07:29:32.286Z,1014.2
2015-11-03T07:30:32.210Z,1014.1
2015-11-03T07:31:32.166Z,1014.2
2015-11-03T07:32:32.105Z,1014.2
2015-11-03T07:33:32.233Z,1014
2015-11-03T07:34:31.987Z,1014
2015-11-03T07:35:31.943Z,1014
2015-11-03T07:36:31.883Z,1014.1
2015-11-03T07:37:31.823Z,1014.1
2015-11-03T07:38:31.764Z,1014
2015-11-03T07:39:31.686Z,1014.1
2015-11-03T07:40:31.626Z,1014.1
2015-11-03T07:41:31.581Z,1014
2015-11-03T07:42:31.523Z,1013.9
2015-11-03T07:43:31.712Z,1013.9
2015-11-03T07:44:31.418Z,1013.9
2015-11-03T07:45:31.327Z,1013.9
2015-11-03T07:46:31.283Z,1013.9
2015-11-03T07:47:31.223Z,1013.8
2015-11-03T07:48:31.164Z,1013.8
2015-11-03T07:49:31.104Z,1013.8
2015-11-03T07:50:31.044Z,1013.9
2015-11-03T07:51:31.000Z,1013.8
2015-11-03T07:52:30.940Z,1013.8
2015-11-03T07:53:30.865Z,1013.8
2015-11-03T07:54:30.821Z,1013.9
2015-11-03T07:55:30.761Z,1013.9
2015-11-03T07:56:30.701Z,1013.9
2015-11-03T07:57:30.521Z,1013.9
2015-11-03T07:58:30.587Z,1013.8
2015-11-03T07:59:30.541Z,1013.8
2015-11-03T08:00:30.467Z,1013.9
2015-11-03T08:01:30.251Z,1013.9
2015-11-03T08:02:30.347Z,1014
2015-11-03T08:03:30.288Z,1014
2015-11-03T08:04:30.227Z,1014
2015-11-03T08:05:30.371Z,1013.9
2015-11-03T08:06:30.108Z,1014
2015-11-03T08:07:30.049Z,1014.1
2015-11-03T08:08:29.989Z,1014.1
2015-11-03T08:09:29.960Z,1014
2015-11-03T08:10:30.119Z,1014
2015-11-03T08:11:29.825Z,1013.9
2015-11-03T08:12:29.782Z,1013.9
2015-11-03T08:13:29.721Z,1014
2015-11-03T08:14:29.677Z,1014.1
2015-11-03T08:15:29.586Z,1014.2
2015-11-03T08:16:29.730Z,1014.1
2015-11-03T08:17:29.466Z,1014.2
2015-11-03T08:18:29.423Z,1014.2
2015-11-03T08:19:29.363Z,1014.1
2015-11-03T08:20:29.538Z,1014.2
2015-11-03T08:21:29.477Z,1014.2
2015-11-03T08:22:29.199Z,1014.2
2015-11-03T08:23:29.124Z,1014.3
2015-11-03T08:24:29.065Z,1014.2
2015-11-03T08:25:29.208Z,1014.1
2015-11-03T08:26:28.943Z,1014.1
2015-11-03T08:27:28.882Z,1014
2015-11-03T08:28:28.837Z,1014
2015-11-03T08:29:28.965Z,1013.8
2015-11-03T08:30:28.718Z,1013.9
2015-11-03T08:31:28.674Z,1013.8
2015-11-03T08:32:28.599Z,1013.9
2015-11-03T08:33:28.554Z,1013.8
2015-11-03T08:34:28.479Z,1014
2015-11-03T08:35:28.451Z,1013.9
2015-11-03T08:36:28.562Z,1014
2015-11-03T08:37:28.315Z,1013.8
2015-11-03T08:38:28.240Z,1013.9
2015-11-03T08:39:28.431Z,1013.9
2015-11-03T08:40:28.137Z,1013.8
2015-11-03T08:41:28.061Z,1013.8
2015-11-03T08:42:28.017Z,1014
2015-11-03T08:43:27.942Z,1014
2015-11-03T08:44:27.897Z,1014
2015-11-03T08:45:27.837Z,1013.9
2015-11-03T08:46:27.778Z,1013.9
2015-11-03T08:47:27.734Z,1013.9
2015-11-03T08:48:27.673Z,1013.9
2015-11-03T08:49:27.614Z,1013.8
2015-11-03T08:50:27.554Z,1014.1
2015-11-03T08:51:27.495Z,1014.1
2015-11-03T08:52:27.450Z,1014
2015-11-03T08:53:27.406Z,1014
2015-11-03T08:54:27.315Z,1013.8
2015-11-03T08:55:27.272Z,1014
2015-11-03T08:56:27.195Z,1014
2015-11-03T08:57:27.153Z,1014.1
2015-11-03T08:58:27.326Z,1014
2015-11-03T08:59:27.033Z,1013.9
2015-11-03T09:00:26.972Z,1013.8
2015-11-03T09:01:26.913Z,1013.8
2015-11-03T09:02:26.869Z,1013.8
2015-11-03T09:03:26.794Z,1013.8
2015-11-03T09:04:26.750Z,1013.9
2015-11-03T09:05:26.878Z,1013.8
2015-11-03T09:06:26.631Z,1013.8
2015-11-03T09:07:25.805Z,1013.8
2015-11-03T09:08:26.510Z,1013.9
2015-11-03T09:09:26.450Z,1013.8
2015-11-03T09:10:26.406Z,1013.9
2015-11-03T09:11:26.330Z,1013.8
2015-11-03T09:12:26.271Z,1013.8
2015-11-03T09:13:26.227Z,1013.8
2015-11-03T09:14:26.164Z,1013.8
2015-11-03T09:15:26.105Z,1013.7
2015-11-03T09:16:26.044Z,1013.8
2015-11-03T09:17:26.000Z,1013.7
2015-11-03T09:18:25.941Z,1013.8
2015-11-03T09:19:25.866Z,1013.7
2015-11-03T09:20:25.805Z,1013.8
2015-11-03T09:21:25.746Z,1013.7
2015-11-03T09:22:25.733Z,1013.7
2015-11-03T09:23:25.642Z,1013.5
2015-11-03T09:24:25.582Z,1013.6
2015-11-03T09:25:25.522Z,1013.6
2015-11-03T09:26:25.463Z,1013.6
2015-11-03T09:27:25.402Z,1013.5
2015-11-03T09:28:25.359Z,1013.5
2015-11-03T09:29:25.502Z,1013.5
2015-11-03T09:30:25.254Z,1013.5
2015-11-03T09:31:25.180Z,1013.5
2015-11-03T09:32:25.121Z,1013.4
2015-11-03T09:33:25.310Z,1013.4
2015-11-03T09:34:25.032Z,1013.4
2015-11-03T09:35:24.957Z,1013.2
2015-11-03T09:36:24.897Z,1013.3
2015-11-03T09:37:24.852Z,1013.3
2015-11-03T09:38:24.777Z,1013.5
2015-11-03T09:39:24.733Z,1013.5
2015-11-03T09:40:24.673Z,1013.3
2015-11-03T09:41:24.458Z,1013.5
2015-11-03T09:42:24.554Z,1013.3
2015-11-03T09:43:24.682Z,1013.3
2015-11-03T09:44:24.465Z,1013.4
2015-11-03T09:45:24.390Z,1013.3
2015-11-03T09:46:24.330Z,1013.5
2015-11-03T09:47:24.271Z,1013.4
2015-11-03T09:48:24.210Z,1013.4
2015-11-03T09:49:24.168Z,1013.4
2015-11-03T09:50:24.091Z,1013.4
2015-11-03T09:51:24.032Z,1013.4
2015-11-03T09:52:23.988Z,1013.4
2015-11-03T09:53:23.928Z,1013.3
2015-11-03T09:54:23.868Z,1013.2
2015-11-03T09:55:23.809Z,1013.2
2015-11-03T09:56:23.765Z,1013.3
2015-11-03T09:57:23.689Z,1013.5
2015-11-03T09:58:23.660Z,1013.4
2015-11-03T09:59:23.601Z,1013.2
2015-11-03T10:00:23.525Z,1013.3
2015-11-03T10:01:23.481Z,1013.1
2015-11-03T10:02:23.403Z,1013.2
2015-11-03T10:03:23.359Z,1013.2
2015-11-03T10:04:23.299Z,1013.2
2015-11-03T10:05:23.223Z,1013.2
2015-11-03T10:06:23.211Z,1013.2
2015-11-03T10:07:23.120Z,1013.1
2015-11-03T10:08:23.059Z,1013.1
2015-11-03T10:09:23.015Z,1013.1
2015-11-03T10:10:22.956Z,1013.1
2015-11-03T10:11:22.896Z,1013.1
2015-11-03T10:12:22.836Z,1013.2
2015-11-03T10:13:22.776Z,1013.2
2015-11-03T10:14:22.733Z,1013.1
2015-11-03T10:15:22.657Z,1013
2015-11-03T10:16:22.628Z,1013.2
2015-11-03T10:17:22.741Z,1013.2
2015-11-03T10:18:22.525Z,1013.2
2015-11-03T10:19:22.449Z,1013.3
2015-11-03T10:20:22.592Z,1013.2
2015-11-03T10:21:22.345Z,1013.1
2015-11-03T10:22:22.270Z,1013.1
2015-11-03T10:23:22.211Z,1013.2
2015-11-03T10:24:22.354Z,1013.2
2015-11-03T10:25:22.106Z,1013.1
2015-11-03T10:26:22.046Z,1013.1
2015-11-03T10:27:22.222Z,1013
2015-11-03T10:28:21.958Z,1013.1
2015-11-03T10:29:21.867Z,1013.1
2015-11-03T10:30:21.823Z,1013.1
2015-11-03T10:31:21.748Z,1013
2015-11-03T10:32:21.703Z,1013.1
2015-11-03T10:33:21.644Z,1012.9
2015-11-03T10:34:21.584Z,1012.8
2015-11-03T10:35:21.540Z,1012.9
2015-11-03T10:36:21.480Z,1012.9
2015-11-03T10:37:21.421Z,1012.8
2015-11-03T10:38:21.392Z,1012.9
2015-11-03T10:39:21.301Z,1012.9
2015-11-03T10:40:21.257Z,1012.8
2015-11-03T10:41:21.182Z,1012.9
2015-11-03T10:42:21.153Z,1012.9
2015-11-03T10:43:21.078Z,1012.9
2015-11-03T10:44:21.018Z,1012.9
2015-11-03T10:45:20.958Z,1012.9
2015-11-03T10:46:20.899Z,1012.9
2015-11-03T10:47:20.714Z,1012.9
2015-11-03T10:48:20.795Z,1013
2015-11-03T10:49:20.749Z,1012.9
2015-11-03T10:50:20.674Z,1012.7
2015-11-03T10:51:20.615Z,1012.9
2015-11-03T10:52:20.805Z,1012.9
2015-11-03T10:53:20.493Z,1012.9
2015-11-03T10:54:20.668Z,1013
2015-11-03T10:55:20.388Z,1012.9
2015-11-03T10:56:20.563Z,1012.8
2015-11-03T10:57:20.472Z,1012.7
2015-11-03T10:58:20.226Z,1012.7
2015-11-03T10:59:20.149Z,1012.7
2015-11-03T11:00:20.106Z,1012.7
2015-11-03T11:01:20.046Z,1012.7
2015-11-03T11:02:19.986Z,1012.8
2015-11-03T11:03:19.942Z,1012.7
2015-11-03T11:04:19.726Z,1012.8
2015-11-03T11:05:19.823Z,1012.8
2015-11-03T11:06:19.763Z,1012.8
2015-11-03T11:07:19.703Z,1012.8
2015-11-03T11:08:19.659Z,1012.7
2015-11-03T11:09:19.584Z,1012.6
2015-11-03T11:10:19.540Z,1012.5
2015-11-03T11:11:19.480Z,1012.4
2015-11-03T11:12:19.420Z,1012.6
2015-11-03T11:13:19.376Z,1012.5
2015-11-03T11:14:19.315Z,1012.6
2015-11-03T11:15:19.240Z,1012.4
2015-11-03T11:16:19.213Z,1012.5
2015-11-03T11:17:19.137Z,1012.4
2015-11-03T11:18:19.092Z,1012.5
2015-11-03T11:19:19.033Z,1012.4
2015-11-03T11:20:18.989Z,1012.4
2015-11-03T11:21:18.914Z,1012.5
2015-11-03T11:22:19.057Z,1012.5
2015-11-03T11:23:18.810Z,1012.3
2015-11-03T11:24:18.751Z,1012.4
2015-11-03T11:25:18.690Z,1012.4
2015-11-03T11:26:18.833Z,1012.4
2015-11-03T11:27:18.586Z,1012.5
2015-11-03T11:28:18.745Z,1012.4
2015-11-03T11:29:18.467Z,1012.3
2015-11-03T11:30:18.423Z,1012.4
2015-11-03T11:31:18.581Z,1012.4
2015-11-03T11:32:18.303Z,1012.4
2015-11-03T11:33:18.243Z,1012.3
2015-11-03T11:34:18.184Z,1012.2
2015-11-03T11:35:18.124Z,1012.1
2015-11-03T11:36:18.314Z,1012.2
2015-11-03T11:37:18.004Z,1012.3
2015-11-03T11:38:17.960Z,1012.3
2015-11-03T11:39:17.897Z,1012.2
2015-11-03T11:40:17.838Z,1012
2015-11-03T11:41:17.794Z,1012.2
2015-11-03T11:42:17.734Z,1012.2
2015-11-03T11:43:17.675Z,1012.1
2015-11-03T11:44:17.599Z,1012.1
2015-11-03T11:45:17.758Z,1012.1
2015-11-03T11:46:17.511Z,1012.1
2015-11-03T11:47:17.435Z,1012
2015-11-03T11:48:17.391Z,1012.2
2015-11-03T11:49:17.316Z,1012
2015-11-03T11:50:17.271Z,1012
2015-11-03T11:51:17.414Z,1011.9
2015-11-03T11:52:17.167Z,1011.9
2015-11-03T11:53:17.108Z,1012
2015-11-03T11:54:17.032Z,1011.9
2015-11-03T11:55:16.988Z,1011.9
2015-11-03T11:56:16.960Z,1011.9
2015-11-03T11:57:16.885Z,1011.8
2015-11-03T11:58:16.825Z,1011.9
2015-11-03T11:59:17.000Z,1011.8
2015-11-03T12:00:16.705Z,1011.9
2015-11-03T12:01:16.661Z,1011.9
2015-11-03T12:02:16.601Z,1011.9
2015-11-03T12:03:16.541Z,1011.8
2015-11-03T12:04:16.482Z,1011.9
2015-11-03T12:05:16.422Z,1011.9
2015-11-03T12:06:16.393Z,1011.8
2015-11-03T12:07:16.302Z,1011.8
2015-11-03T12:08:16.258Z,1011.8
2015-11-03T12:09:16.401Z,1011.7
2015-11-03T12:10:16.139Z,1011.7
2015-11-03T12:11:16.111Z,1011.6
2015-11-03T12:12:16.256Z,1011.8
2015-11-03T12:13:15.963Z,1011.7
2015-11-03T12:14:15.871Z,1011.6
2015-11-03T12:15:15.811Z,1011.7
2015-11-03T12:16:15.750Z,1011.8
2015-11-03T12:17:15.668Z,1011.6
2015-11-03T12:18:15.603Z,1011.7
2015-11-03T12:19:15.553Z,1011.8
2015-11-03T12:20:15.487Z,1011.8
2015-11-03T12:21:15.422Z,1011.7
2015-11-03T12:22:15.359Z,1011.7
2015-11-03T12:23:15.327Z,1011.6
2015-11-03T12:24:15.250Z,1011.7
2015-11-03T12:25:15.188Z,1011.8
2015-11-03T12:26:15.127Z,1011.7
2015-11-03T12:27:15.081Z,1011.7
2015-11-03T12:28:15.036Z,1011.8
2015-11-03T12:29:14.976Z,1011.8
2015-11-03T12:30:14.899Z,1011.8
2015-11-03T12:31:15.058Z,1012
2015-11-03T12:32:14.776Z,1011.9
2015-11-03T12:33:14.591Z,1012.1
2015-11-03T12:34:14.672Z,1011.9
2015-11-03T12:35:14.628Z,1011.9
2015-11-03T12:36:14.568Z,1012
2015-11-03T12:37:14.540Z,1012.1
2015-11-03T12:38:14.464Z,1012.2
2015-11-03T12:39:14.389Z,1012.2